Time;durP1;ratioP1;P1;durP2;ratioP2;P2;SDS_P1;SDS_P2;PMS_P1;PMS_P2;Temp;Humidity;BMP_temperature;BMP_pressure;BME280_temperature;BME280_humidity;BME280_pressure;Samples;Min_cycle;Max_cycle;Signal;HPM_P1;HPM_P2
2021/12/07 00:00:15;;;;;;;5.83;3.40;;;;;;;;;;5155472;27;20190;-96
2021/12/07 00:02:43;;;;;;;4.17;2.70;;;;;;;;;;5155250;27;20717;-95
2021/12/07 00:05:11;;;;;;;3.10;2.40;;;;;;;;;;5154978;27;20665;-96
2021/12/07 00:07:39;;;;;;;1.90;1.80;;;;;;;;;;5154854;27;20305;-95
2021/12/07 00:10:07;;;;;;;3.67;2.37;;;;;;;;;;5155224;27;20231;-95
2021/12/07 00:12:38;;;;;;;2.70;2.50;;;;;;;;;;5155267;27;20193;-96
2021/12/07 00:15:08;;;;;;;2.73;2.47;;;;;;;;;;5155253;27;20192;-95
2021/12/07 00:17:36;;;;;;;3.70;2.77;;;;;;;;;;5155264;27;20194;-96
2021/12/07 00:20:08;;;;;;;2.60;2.40;;;;;;;;;;5155150;27;20729;-94
2021/12/07 00:22:36;;;;;;;2.27;2.10;;;;;;;;;;5155022;27;20205;-96
2021/12/07 00:25:04;;;;;;;7.13;2.50;;;;;;;;;;5154942;27;20198;-96
2021/12/07 00:27:31;;;;;;;3.23;2.10;;;;;;;;;;5154637;27;20228;-96
2021/12/07 00:29:58;;;;;;;2.27;2.00;;;;;;;;;;5155016;27;20680;-96
2021/12/07 00:32:33;;;;;;;2.57;2.17;;;;;;;;;;5154517;27;20713;-96
2021/12/07 00:35:25;;;;;;;4.80;2.30;;;;;;;;;;5155238;27;20197;-95
2021/12/07 00:37:54;;;;;;;2.00;1.90;;;;;;;;;;5154766;27;20189;-95
2021/12/07 00:40:22;;;;;;;2.50;2.30;;;;;;;;;;5155042;27;20257;-95
2021/12/07 00:42:51;;;;;;;3.40;3.07;;;;;;;;;;5155086;27;20201;-96
2021/12/07 00:45:21;;;;;;;3.70;2.80;;;;;;;;;;5154556;27;20229;-93
2021/12/07 00:47:51;;;;;;;5.33;2.80;;;;;;;;;;5154683;27;20237;-96
2021/12/07 00:50:20;;;;;;;4.67;4.30;;;;;;;;;;5154551;27;20269;-96
2021/12/07 00:52:48;;;;;;;4.70;4.30;;;;;;;;;;5154520;27;20217;-95
2021/12/07 00:55:18;;;;;;;4.10;3.77;;;;;;;;;;5154596;27;20680;-96
2021/12/07 00:57:45;;;;;;;3.90;3.30;;;;;;;;;;5154422;27;20186;-95
2021/12/07 01:00:16;;;;;;;3.47;3.17;;;;;;;;;;5154703;27;20200;-95
2021/12/07 01:02:43;;;;;;;3.53;3.23;;;;;;;;;;5154436;27;20265;-95
2021/12/07 01:05:17;;;;;;;3.70;3.40;;;;;;;;;;5154286;27;20284;-95
2021/12/07 01:08:10;;;;;;;3.10;2.90;;;;;;;;;;5154522;27;20214;-96
2021/12/07 01:24:42;;;;;;;4.43;4.13;;;;;;;;;;5154281;27;20620;-95
2021/12/07 01:27:12;;;;;;;5.63;3.20;;;;;;;;;;5154207;27;20292;-96
2021/12/07 01:29:41;;;;;;;3.70;3.40;;;;;;;;;;5154055;27;20194;-95
2021/12/07 01:32:20;;;;;;;5.83;3.70;;;;;;;;;;5154305;27;20186;-95
2021/12/07 01:37:40;;;;;;;4.63;3.40;;;;;;;;;;5153932;27;20186;-96
2021/12/07 01:43:27;;;;;;;5.00;3.73;;;;;;;;;;5151477;27;20190;-96
2021/12/07 01:51:40;;;;;;;4.57;2.87;;;;;;;;;;5157871;27;20262;-96
2021/12/07 01:59:38;;;;;;;2.33;2.13;;;;;;;;;;5157923;27;20637;-95
2021/12/07 02:02:08;;;;;;;2.50;2.20;;;;;;;;;;5157855;27;20613;-95
2021/12/07 02:04:35;;;;;;;2.90;2.40;;;;;;;;;;5157491;27;20194;-95
2021/12/07 02:07:03;;;;;;;3.30;2.60;;;;;;;;;;5157717;27;20218;-96
2021/12/07 02:09:33;;;;;;;4.23;3.10;;;;;;;;;;5157409;27;20201;-95
2021/12/07 02:12:02;;;;;;;6.43;2.50;;;;;;;;;;5157852;27;20562;-95
2021/12/07 02:14:30;;;;;;;2.60;2.20;;;;;;;;;;5157550;27;20198;-95
2021/12/07 02:17:00;;;;;;;2.47;2.07;;;;;;;;;;5157233;27;20194;-96
2021/12/07 02:19:27;;;;;;;1.57;1.47;;;;;;;;;;5158082;27;20211;-95
2021/12/07 02:21:57;;;;;;;2.00;1.87;;;;;;;;;;5158669;27;20228;-96
2021/12/07 02:24:25;;;;;;;1.30;1.30;;;;;;;;;;5157270;27;20412;-96
2021/12/07 02:26:53;;;;;;;4.17;2.00;;;;;;;;;;5157241;27;20194;-96
2021/12/07 02:29:22;;;;;;;2.20;1.70;;;;;;;;;;5157446;27;20577;-96
2021/12/07 02:31:51;;;;;;;1.90;1.50;;;;;;;;;;5157348;27;20696;-96
2021/12/07 02:34:18;;;;;;;2.30;2.00;;;;;;;;;;5157305;27;20628;-96
2021/12/07 02:36:46;;;;;;;1.20;1.20;;;;;;;;;;5157040;27;20212;-96
2021/12/07 02:39:15;;;;;;;2.60;2.40;;;;;;;;;;5157252;27;20585;-96
2021/12/07 02:41:42;;;;;;;2.77;2.00;;;;;;;;;;5157147;27;20632;-96
2021/12/07 02:44:10;;;;;;;2.87;2.33;;;;;;;;;;5156851;27;20667;-96
2021/12/07 02:46:39;;;;;;;3.03;2.17;;;;;;;;;;5156886;27;20679;-96
2021/12/07 02:49:07;;;;;;;2.07;1.93;;;;;;;;;;5156535;27;20213;-96
2021/12/07 02:51:35;;;;;;;3.37;2.23;;;;;;;;;;5156966;27;20681;-96
2021/12/07 02:54:03;;;;;;;3.07;2.87;;;;;;;;;;5156795;27;20247;-96
2021/12/07 02:56:32;;;;;;;3.40;3.10;;;;;;;;;;5156835;27;20197;-96
2021/12/07 02:59:02;;;;;;;2.60;2.40;;;;;;;;;;5156898;27;20190;-96
2021/12/07 03:01:34;;;;;;;4.23;2.80;;;;;;;;;;5157314;27;20250;-96
2021/12/07 03:04:06;;;;;;;4.60;2.47;;;;;;;;;;5156921;27;20197;-96
2021/12/07 03:06:49;;;;;;;2.60;2.27;;;;;;;;;;5156890;27;20273;-96
2021/12/07 03:26:02;;;;;;;3.57;2.40;;;;;;;;;;5156105;27;20227;-96
2021/12/07 03:28:32;;;;;;;8.73;4.13;;;;;;;;;;5156130;27;20205;-95
2021/12/07 03:30:59;;;;;;;5.80;3.03;;;;;;;;;;5155726;27;20280;-96
2021/12/07 03:33:27;;;;;;;4.17;2.77;;;;;;;;;;5156028;27;20198;-96
2021/12/07 03:35:54;;;;;;;3.07;2.63;;;;;;;;;;5155701;27;20277;-96
2021/12/07 03:38:22;;;;;;;4.73;2.47;;;;;;;;;;5155663;27;20224;-96
2021/12/07 03:40:49;;;;;;;6.23;3.43;;;;;;;;;;5155305;27;20229;-96
2021/12/07 03:43:16;;;;;;;6.47;4.17;;;;;;;;;;5155507;27;20202;-96
2021/12/07 03:45:45;;;;;;;3.70;3.17;;;;;;;;;;5156373;27;20284;-96
2021/12/07 03:48:13;;;;;;;3.67;2.20;;;;;;;;;;5155544;27;20217;-96
2021/12/07 03:50:41;;;;;;;4.23;2.63;;;;;;;;;;5156222;27;20295;-96
2021/12/07 03:53:09;;;;;;;5.77;3.20;;;;;;;;;;5155521;27;20250;-96
2021/12/07 03:55:37;;;;;;;3.47;2.83;;;;;;;;;;5155471;27;20186;-96
2021/12/07 03:58:05;;;;;;;5.33;3.03;;;;;;;;;;5155656;27;20190;-96
2021/12/07 04:00:34;;;;;;;4.13;3.40;;;;;;;;;;5155377;27;20200;-96
2021/12/07 04:03:07;;;;;;;5.47;3.07;;;;;;;;;;5155267;27;20194;-96
2021/12/07 04:05:36;;;;;;;2.80;2.47;;;;;;;;;;5155226;27;20624;-96
2021/12/07 04:08:04;;;;;;;4.40;3.57;;;;;;;;;;5156183;27;20217;-96
2021/12/07 04:10:31;;;;;;;6.53;2.90;;;;;;;;;;5155790;27;20277;-96
2021/12/07 04:12:58;;;;;;;5.17;2.80;;;;;;;;;;5158464;27;20200;-93
2021/12/07 04:15:26;;;;;;;5.13;3.50;;;;;;;;;;5153464;27;20212;-96
2021/12/07 04:17:53;;;;;;;4.43;2.57;;;;;;;;;;5159935;27;20190;-94
2021/12/07 04:20:23;;;;;;;4.73;2.77;;;;;;;;;;5161100;27;20196;-96
2021/12/07 04:22:50;;;;;;;3.03;2.50;;;;;;;;;;5161557;27;20304;-96
2021/12/07 04:25:19;;;;;;;3.20;2.90;;;;;;;;;;5162724;27;20198;-96
2021/12/07 04:27:47;;;;;;;2.70;2.50;;;;;;;;;;5160242;27;20741;-96
2021/12/07 04:30:16;;;;;;;5.40;3.50;;;;;;;;;;5161072;27;20198;-95
2021/12/07 04:32:45;;;;;;;4.20;3.10;;;;;;;;;;5162712;27;20767;-96
2021/12/07 04:35:14;;;;;;;4.33;3.93;;;;;;;;;;5163657;27;20194;-96
2021/12/07 04:37:43;;;;;;;4.60;2.83;;;;;;;;;;5143942;27;20260;-96
2021/12/07 04:40:15;;;;;;;4.13;2.87;;;;;;;;;;5141676;27;20227;-96
2021/12/07 04:42:43;;;;;;;3.67;2.87;;;;;;;;;;5140538;27;20211;-96
2021/12/07 04:45:20;;;;;;;4.87;3.40;;;;;;;;;;5138726;27;20725;-96
2021/12/07 04:47:58;;;;;;;3.27;2.97;;;;;;;;;;5138687;28;20275;-96
2021/12/07 04:57:34;;;;;;;3.23;2.60;;;;;;;;;;5139030;28;20221;-96
2021/12/07 04:58:50;;;;;;;2.97;2.70;;;;;;;;;;5174127;27;20177;-96
2021/12/07 05:01:18;;;;;;;3.17;2.60;;;;;;;;;;5174085;27;20593;-96
2021/12/07 05:06:27;;;;;;;3.50;3.20;;;;;;;;;;6106442;22;20212;-96
2021/12/07 05:09:00;;;;;;;3.40;3.13;;;;;;;;;;5112405;28;20239;-96
2021/12/07 05:11:44;;;;;;;3.50;3.20;;;;;;;;;;5112180;28;20193;-96
2021/12/07 05:14:17;;;;;;;4.67;3.43;;;;;;;;;;5107307;28;20253;-96
2021/12/07 05:16:58;;;;;;;3.50;3.20;;;;;;;;;;5103490;28;20254;-96
2021/12/07 05:25:25;;;;;;;5.27;3.17;;;;;;;;;;5098815;28;20230;-96
2021/12/07 05:38:50;;;;;;;6.87;5.67;;;;;;;;;;5105156;28;20242;-95
2021/12/07 05:41:19;;;;;;;4.10;3.80;;;;;;;;;;5099993;28;20199;-96
2021/12/07 05:43:47;;;;;;;4.67;3.30;;;;;;;;;;5101176;28;20239;-96
2021/12/07 05:46:15;;;;;;;4.60;4.20;;;;;;;;;;5091015;28;20204;-96
2021/12/07 05:48:42;;;;;;;4.00;3.60;;;;;;;;;;5097806;28;20220;-96
2021/12/07 05:51:10;;;;;;;4.20;3.90;;;;;;;;;;5091152;28;20661;-96
2021/12/07 05:53:37;;;;;;;4.43;4.13;;;;;;;;;;5090507;28;20283;-96
2021/12/07 05:56:05;;;;;;;3.50;3.20;;;;;;;;;;5090499;28;20243;-96
2021/12/07 05:58:34;;;;;;;4.33;4.03;;;;;;;;;;5088165;28;20697;-96
2021/12/07 06:01:01;;;;;;;3.27;2.97;;;;;;;;;;5084304;28;20232;-96
2021/12/07 06:03:29;;;;;;;8.00;7.30;;;;;;;;;;5082139;28;20491;-96
2021/12/07 06:06:00;;;;;;;5.77;5.37;;;;;;;;;;5087699;28;20255;-96
2021/12/07 06:08:28;;;;;;;4.67;4.00;;;;;;;;;;5084127;28;20209;-96
2021/12/07 06:10:55;;;;;;;3.40;3.10;;;;;;;;;;5084753;28;20245;-96
2021/12/07 06:13:22;;;;;;;4.63;4.30;;;;;;;;;;5079252;28;20189;-96
2021/12/07 06:15:52;;;;;;;9.77;8.93;;;;;;;;;;5075487;28;20189;-96
2021/12/07 06:18:19;;;;;;;9.17;8.40;;;;;;;;;;5079130;28;20302;-96
2021/12/07 06:20:46;;;;;;;5.13;4.70;;;;;;;;;;5079685;28;20223;-96
2021/12/07 06:23:15;;;;;;;19.63;17.80;;;;;;;;;;5078029;28;20197;-96
2021/12/07 06:25:42;;;;;;;7.00;5.37;;;;;;;;;;5075197;28;20204;-95
2021/12/07 06:28:10;;;;;;;3.57;3.27;;;;;;;;;;5075373;28;20228;-95
2021/12/07 06:30:37;;;;;;;2.40;2.03;;;;;;;;;;5074863;28;20227;-96
2021/12/07 06:33:06;;;;;;;3.37;2.77;;;;;;;;;;5075362;28;20201;-96
2021/12/07 06:35:33;;;;;;;3.03;2.73;;;;;;;;;;5075083;28;20242;-95
2021/12/07 06:38:01;;;;;;;3.20;2.70;;;;;;;;;;5074970;28;20193;-96
2021/12/07 06:40:28;;;;;;;1.80;1.70;;;;;;;;;;5075457;28;20266;-96
2021/12/07 06:42:59;;;;;;;3.03;2.83;;;;;;;;;;5075184;28;20185;-96
2021/12/07 06:45:27;;;;;;;4.30;3.00;;;;;;;;;;5076072;28;20189;-96
2021/12/07 06:47:55;;;;;;;2.90;2.70;;;;;;;;;;5075179;28;20189;-96
2021/12/07 06:50:25;;;;;;;2.70;2.47;;;;;;;;;;5074760;28;20275;-96
2021/12/07 06:52:52;;;;;;;3.23;3.03;;;;;;;;;;5074851;28;20700;-95
2021/12/07 06:55:20;;;;;;;3.93;3.63;;;;;;;;;;5075020;28;20193;-96
2021/12/07 06:57:47;;;;;;;3.10;2.90;;;;;;;;;;5075743;28;20201;-96
2021/12/07 07:00:16;;;;;;;3.97;3.67;;;;;;;;;;5075213;28;20283;-96
2021/12/07 07:02:44;;;;;;;4.93;4.07;;;;;;;;;;5075882;28;20285;-96
2021/12/07 07:05:12;;;;;;;2.97;2.77;;;;;;;;;;5075086;28;20204;-96
2021/12/07 07:07:41;;;;;;;7.43;6.83;;;;;;;;;;5074934;28;20229;-96
2021/12/07 07:10:11;;;;;;;4.03;3.67;;;;;;;;;;5074708;28;20217;-96
2021/12/07 07:12:38;;;;;;;4.43;4.03;;;;;;;;;;5074523;28;20196;-96
2021/12/07 07:15:07;;;;;;;9.17;8.47;;;;;;;;;;5074721;28;20250;-96
2021/12/07 07:17:34;;;;;;;4.00;3.00;;;;;;;;;;5074770;28;20604;-96
2021/12/07 07:20:03;;;;;;;3.53;3.13;;;;;;;;;;5074520;28;20201;-96
2021/12/07 07:22:30;;;;;;;6.27;5.77;;;;;;;;;;5074678;28;20658;-96
2021/12/07 07:24:59;;;;;;;4.83;4.43;;;;;;;;;;5074418;28;20217;-96
2021/12/07 07:27:27;;;;;;;5.00;4.53;;;;;;;;;;5074431;28;20250;-96
2021/12/07 07:29:54;;;;;;;2.87;2.67;;;;;;;;;;5074239;28;20252;-96
2021/12/07 07:32:21;;;;;;;4.73;4.43;;;;;;;;;;5074878;28;20205;-96
2021/12/07 07:34:49;;;;;;;5.10;4.70;;;;;;;;;;5075191;28;20578;-96
2021/12/07 07:37:16;;;;;;;3.07;2.77;;;;;;;;;;5075464;28;20204;-96
2021/12/07 07:39:44;;;;;;;4.80;4.37;;;;;;;;;;5075446;28;20217;-96
2021/12/07 07:42:13;;;;;;;3.77;3.10;;;;;;;;;;5076403;28;20219;-96
2021/12/07 07:44:40;;;;;;;3.80;2.97;;;;;;;;;;5076699;28;20201;-96
2021/12/07 07:47:08;;;;;;;3.53;3.23;;;;;;;;;;5076120;28;20283;-96
2021/12/07 07:49:35;;;;;;;3.43;3.13;;;;;;;;;;5077227;28;20715;-96
2021/12/07 07:52:03;;;;;;;4.57;4.10;;;;;;;;;;5077795;28;20223;-96
2021/12/07 07:54:30;;;;;;;4.13;2.87;;;;;;;;;;5079050;28;20280;-96
2021/12/07 07:56:58;;;;;;;2.67;2.47;;;;;;;;;;5080269;28;20201;-96
2021/12/07 07:59:27;;;;;;;3.67;3.17;;;;;;;;;;5079282;28;20220;-96
2021/12/07 08:01:55;;;;;;;5.93;2.87;;;;;;;;;;5080214;28;20197;-96
2021/12/07 08:04:22;;;;;;;2.67;2.47;;;;;;;;;;5079830;28;20217;-96
2021/12/07 08:06:50;;;;;;;5.20;2.90;;;;;;;;;;5079075;28;20235;-95
2021/12/07 08:09:17;;;;;;;4.57;3.30;;;;;;;;;;5077589;28;20221;-96
2021/12/07 08:11:44;;;;;;;5.07;4.67;;;;;;;;;;5077940;28;20205;-96
2021/12/07 08:14:12;;;;;;;5.00;4.53;;;;;;;;;;5078551;28;20201;-96
2021/12/07 08:16:41;;;;;;;4.80;2.80;;;;;;;;;;5079450;28;20217;-96
2021/12/07 08:19:09;;;;;;;3.20;2.90;;;;;;;;;;5081908;28;20197;-96
2021/12/07 08:21:37;;;;;;;2.90;2.60;;;;;;;;;;5085212;28;20254;-96
2021/12/07 08:24:05;;;;;;;4.90;2.93;;;;;;;;;;5082290;28;20205;-96
2021/12/07 08:26:35;;;;;;;3.90;2.70;;;;;;;;;;5086162;28;20197;-96
2021/12/07 08:29:03;;;;;;;5.47;4.10;;;;;;;;;;5081859;28;20224;-96
2021/12/07 08:31:31;;;;;;;6.87;6.03;;;;;;;;;;5082942;28;20201;-96
2021/12/07 08:34:01;;;;;;;6.50;4.33;;;;;;;;;;5084482;28;20227;-96
2021/12/07 08:36:29;;;;;;;5.90;5.40;;;;;;;;;;5084007;28;20201;-96
2021/12/07 08:38:56;;;;;;;5.40;4.00;;;;;;;;;;5083705;28;20212;-96
2021/12/07 08:41:24;;;;;;;3.40;3.10;;;;;;;;;;5087122;28;20231;-96
2021/12/07 08:43:51;;;;;;;3.20;2.90;;;;;;;;;;5086712;28;20189;-96
2021/12/07 08:46:19;;;;;;;3.17;2.70;;;;;;;;;;5085043;28;20219;-96
2021/12/07 08:48:46;;;;;;;2.60;2.40;;;;;;;;;;5085403;28;20260;-96
2021/12/07 08:51:16;;;;;;;9.00;6.87;;;;;;;;;;5086263;28;20193;-96
2021/12/07 08:53:49;;;;;;;11.43;9.80;;;;;;;;;;5088359;28;20189;-95
2021/12/07 09:01:47;;;;;;;4.50;4.00;;;;;;;;;;5091142;28;20176;-96
2021/12/07 09:04:17;;;;;;;5.13;4.63;;;;;;;;;;5088303;28;20197;-96
2021/12/07 09:06:47;;;;;;;4.53;4.03;;;;;;;;;;5089899;28;20294;-96
2021/12/07 09:09:15;;;;;;;4.63;4.17;;;;;;;;;;5088017;28;20212;-96
2021/12/07 09:11:42;;;;;;;5.70;4.80;;;;;;;;;;5088484;28;20200;-96
2021/12/07 09:14:14;;;;;;;3.47;2.93;;;;;;;;;;5090248;28;20202;-96
2021/12/07 09:16:42;;;;;;;4.23;3.80;;;;;;;;;;5093735;28;20245;-96
2021/12/07 09:19:10;;;;;;;4.77;4.30;;;;;;;;;;5094014;28;20220;-96
2021/12/07 09:21:37;;;;;;;10.00;9.00;;;;;;;;;;5094349;28;20198;-96
2021/12/07 09:24:07;;;;;;;13.80;12.40;;;;;;;;;;5094446;28;20212;-96
2021/12/07 09:26:35;;;;;;;10.43;8.63;;;;;;;;;;5093553;28;20201;-96
2021/12/07 09:29:03;;;;;;;9.27;8.37;;;;;;;;;;5092804;28;20204;-96
2021/12/07 09:31:30;;;;;;;6.17;5.57;;;;;;;;;;5094261;28;20190;-97
2021/12/07 09:33:58;;;;;;;11.83;10.83;;;;;;;;;;5096185;28;20180;-96
2021/12/07 09:36:26;;;;;;;6.37;4.40;;;;;;;;;;5094269;28;20673;-96
2021/12/07 09:38:53;;;;;;;5.83;5.17;;;;;;;;;;5096286;28;20197;-96
2021/12/07 09:41:22;;;;;;;5.63;4.60;;;;;;;;;;5095567;28;20260;-96
2021/12/07 09:43:50;;;;;;;5.47;4.50;;;;;;;;;;5096458;28;20255;-96
2021/12/07 09:46:18;;;;;;;6.30;5.83;;;;;;;;;;5094805;28;20225;-96
2021/12/07 09:48:47;;;;;;;50.17;45.27;;;;;;;;;;5095299;28;20185;-96
2021/12/07 09:51:17;;;;;;;88.37;68.40;;;;;;;;;;5095961;28;20247;-96
2021/12/07 09:53:45;;;;;;;31.53;28.80;;;;;;;;;;5096174;28;20208;-96
2021/12/07 09:56:12;;;;;;;48.83;44.97;;;;;;;;;;5096921;28;20190;-96
2021/12/07 09:58:42;;;;;;;14.27;12.90;;;;;;;;;;5095645;28;20193;-96
2021/12/07 10:01:13;;;;;;;24.17;21.77;;;;;;;;;;5095713;28;20216;-96
2021/12/07 10:03:41;;;;;;;16.90;15.37;;;;;;;;;;5096935;28;20193;-96
2021/12/07 10:06:08;;;;;;;8.00;7.27;;;;;;;;;;5098351;28;20189;-96
2021/12/07 10:08:36;;;;;;;12.00;10.77;;;;;;;;;;5099236;28;20194;-96
2021/12/07 10:11:06;;;;;;;12.37;11.37;;;;;;;;;;5099405;28;20281;-96
2021/12/07 10:13:38;;;;;;;21.87;19.80;;;;;;;;;;5098980;28;20185;-96
2021/12/07 10:16:09;;;;;;;7.93;5.70;;;;;;;;;;5099314;28;20173;-96
2021/12/07 10:18:38;;;;;;;4.97;4.47;;;;;;;;;;5099535;28;20181;-96
2021/12/07 10:21:09;;;;;;;5.00;4.00;;;;;;;;;;5098945;28;20200;-96
2021/12/07 10:23:38;;;;;;;7.37;3.10;;;;;;;;;;5099784;28;20188;-96
2021/12/07 10:26:09;;;;;;;5.17;4.27;;;;;;;;;;5099360;28;20197;-96
2021/12/07 10:28:38;;;;;;;5.67;3.40;;;;;;;;;;5099468;28;20197;-96
2021/12/07 10:31:17;;;;;;;4.83;3.20;;;;;;;;;;5099859;28;20247;-96
2021/12/07 10:33:47;;;;;;;5.30;3.17;;;;;;;;;;5099005;28;20211;-96
2021/12/07 10:36:17;;;;;;;7.33;3.60;;;;;;;;;;5099550;28;20215;-96
2021/12/07 10:38:49;;;;;;;3.53;3.20;;;;;;;;;;5099397;28;20186;-96
2021/12/07 10:41:21;;;;;;;5.33;4.50;;;;;;;;;;5099328;28;20186;-96
2021/12/07 10:43:55;;;;;;;7.30;4.57;;;;;;;;;;5098754;28;20215;-96
2021/12/07 10:46:36;;;;;;;15.13;11.33;;;;;;;;;;5099974;28;20194;-96
2021/12/07 10:49:20;;;;;;;7.17;5.63;;;;;;;;;;5098492;28;20200;-96
2021/12/07 10:52:07;;;;;;;10.40;7.83;;;;;;;;;;5098367;28;20189;-96
2021/12/07 10:54:37;;;;;;;4.90;4.03;;;;;;;;;;5098458;28;20174;-96
2021/12/07 10:57:06;;;;;;;6.90;4.40;;;;;;;;;;5099199;28;20185;-96
2021/12/07 10:59:34;;;;;;;4.50;2.40;;;;;;;;;;5098265;28;20186;-96
2021/12/07 11:02:13;;;;;;;6.17;2.97;;;;;;;;;;5099141;28;20197;-96
2021/12/07 11:04:41;;;;;;;3.43;2.67;;;;;;;;;;5096371;28;20653;-96
2021/12/07 11:07:12;;;;;;;3.20;1.73;;;;;;;;;;5096647;28;20252;-96
2021/12/07 11:09:47;;;;;;;5.30;3.50;;;;;;;;;;5094836;28;20231;-96
2021/12/07 11:12:17;;;;;;;4.00;2.63;;;;;;;;;;5096420;28;20197;-96
2021/12/07 11:14:51;;;;;;;6.20;4.27;;;;;;;;;;5096070;28;20215;-96
2021/12/07 11:17:27;;;;;;;4.40;2.87;;;;;;;;;;5095837;28;20185;-96
2021/12/07 11:19:55;;;;;;;4.97;3.97;;;;;;;;;;5097034;28;20188;-96
2021/12/07 11:22:25;;;;;;;6.20;4.40;;;;;;;;;;5098015;28;20227;-96
2021/12/07 11:24:54;;;;;;;8.27;5.83;;;;;;;;;;5098349;28;20188;-96
2021/12/07 11:30:10;;;;;;;9.97;8.97;;;;;;;;;;5096641;28;20204;-96
2021/12/07 11:32:43;;;;;;;8.97;7.10;;;;;;;;;;5096588;28;20166;-96
2021/12/07 11:35:14;;;;;;;6.90;6.20;;;;;;;;;;5095976;28;20197;-96
2021/12/07 11:37:43;;;;;;;4.97;4.47;;;;;;;;;;5095474;28;20207;-96
2021/12/07 11:40:13;;;;;;;9.00;5.97;;;;;;;;;;5096005;28;20197;-96
2021/12/07 11:42:42;;;;;;;18.23;12.60;;;;;;;;;;5096222;28;20223;-96
2021/12/07 11:45:13;;;;;;;13.83;9.97;;;;;;;;;;5095923;28;20219;-96
2021/12/07 11:47:44;;;;;;;8.83;7.53;;;;;;;;;;5096309;28;20181;-96
2021/12/07 11:50:17;;;;;;;11.13;7.90;;;;;;;;;;5092925;28;20604;-96
2021/12/07 11:52:45;;;;;;;8.33;7.53;;;;;;;;;;5093866;28;20211;-96
2021/12/07 11:55:13;;;;;;;4.10;3.40;;;;;;;;;;5095599;28;20220;-96
2021/12/07 11:57:41;;;;;;;4.00;3.33;;;;;;;;;;5094933;28;20197;-96
2021/12/07 12:00:12;;;;;;;5.17;4.53;;;;;;;;;;5097313;28;20185;-96
2021/12/07 12:02:41;;;;;;;4.47;4.07;;;;;;;;;;5095877;28;20211;-96
2021/12/07 12:05:10;;;;;;;3.37;3.00;;;;;;;;;;5095394;28;20197;-96
2021/12/07 12:07:40;;;;;;;8.40;5.20;;;;;;;;;;5094285;28;20232;-96
2021/12/07 12:10:10;;;;;;;12.87;8.93;;;;;;;;;;5094162;28;20205;-96
2021/12/07 12:12:47;;;;;;;6.27;4.83;;;;;;;;;;5096100;28;20241;-96
2021/12/07 12:15:31;;;;;;;11.10;8.73;;;;;;;;;;5095991;28;20180;-96
2021/12/07 12:18:04;;;;;;;10.87;7.27;;;;;;;;;;5096459;28;20181;-96
2021/12/07 12:20:42;;;;;;;7.20;5.13;;;;;;;;;;5097474;28;20240;-96
2021/12/07 12:23:15;;;;;;;8.53;6.70;;;;;;;;;;5096514;28;20197;-96
2021/12/07 12:25:43;;;;;;;13.90;9.30;;;;;;;;;;5095706;28;20237;-96
2021/12/07 12:28:10;;;;;;;9.50;7.27;;;;;;;;;;5096946;28;20220;-96
2021/12/07 12:30:42;;;;;;;9.23;5.03;;;;;;;;;;5095743;28;20221;-96
2021/12/07 12:33:14;;;;;;;5.03;3.27;;;;;;;;;;5095999;28;20172;-96
2021/12/07 12:35:44;;;;;;;8.60;4.77;;;;;;;;;;5167471;22;20259;-95
2021/12/07 12:38:19;;;;;;;4.43;3.40;;;;;;;;;;5093840;28;20193;-96
2021/12/07 12:40:56;;;;;;;3.63;2.87;;;;;;;;;;5137520;22;20314;-94
2021/12/07 12:43:35;;;;;;;4.83;3.87;;;;;;;;;;5097243;28;20246;-96
2021/12/07 12:46:03;;;;;;;4.67;3.07;;;;;;;;;;5089783;28;20185;-96
2021/12/07 12:48:33;;;;;;;15.20;11.10;;;;;;;;;;5093357;28;20180;-96
2021/12/07 12:51:00;;;;;;;33.33;18.40;;;;;;;;;;5234760;22;21154;-96
2021/12/07 12:53:31;;;;;;;29.10;17.30;;;;;;;;;;5077441;28;20277;-96
2021/12/07 12:56:00;;;;;;;14.23;11.83;;;;;;;;;;5078029;28;20182;-96
2021/12/07 12:58:40;;;;;;;12.47;8.80;;;;;;;;;;5431013;22;21158;-96
2021/12/07 13:01:12;;;;;;;9.77;8.43;;;;;;;;;;5076436;28;20207;-96
2021/12/07 13:04:09;;;;;;;7.93;7.13;;;;;;;;;;5076788;28;20186;-96
2021/12/07 13:06:55;;;;;;;10.97;8.13;;;;;;;;;;5077205;28;20208;-96
2021/12/07 13:09:36;;;;;;;7.53;6.70;;;;;;;;;;5074691;28;20217;-96
2021/12/07 13:12:06;;;;;;;8.80;7.90;;;;;;;;;;5073983;28;20212;-94
2021/12/07 13:14:37;;;;;;;12.23;10.93;;;;;;;;;;5072897;28;20190;-96
2021/12/07 13:17:18;;;;;;;13.23;10.33;;;;;;;;;;5070247;28;20178;-96
2021/12/07 13:20:09;;;;;;;10.07;9.17;;;;;;;;;;5066578;28;20182;-96
2021/12/07 13:22:37;;;;;;;9.03;7.23;;;;;;;;;;5068542;28;20183;-96
2021/12/07 13:25:07;;;;;;;7.17;6.47;;;;;;;;;;5066451;28;20194;-96
2021/12/07 13:27:35;;;;;;;6.57;5.07;;;;;;;;;;5065658;28;20209;-96
2021/12/07 13:30:05;;;;;;;5.90;3.20;;;;;;;;;;5067320;28;20198;-96
2021/12/07 13:32:32;;;;;;;5.90;5.20;;;;;;;;;;5066015;28;20204;-96
2021/12/07 13:35:08;;;;;;;8.27;5.87;;;;;;;;;;5067301;28;20194;-96
2021/12/07 13:37:45;;;;;;;9.30;7.37;;;;;;;;;;5066976;28;20189;-96
2021/12/07 13:40:21;;;;;;;17.30;13.93;;;;;;;;;;5068674;28;20228;-96
2021/12/07 13:42:50;;;;;;;9.17;7.07;;;;;;;;;;5071618;28;20207;-96
2021/12/07 13:45:19;;;;;;;7.73;5.80;;;;;;;;;;5073109;28;20194;-96
2021/12/07 13:47:49;;;;;;;11.83;7.43;;;;;;;;;;5072584;28;20190;-96
2021/12/07 13:50:21;;;;;;;22.60;15.53;;;;;;;;;;5073578;28;20194;-96
2021/12/07 13:52:51;;;;;;;24.57;16.83;;;;;;;;;;5075436;28;20186;-96
2021/12/07 13:55:21;;;;;;;16.67;12.93;;;;;;;;;;5077007;28;20194;-96
2021/12/07 13:57:51;;;;;;;14.00;11.37;;;;;;;;;;5076820;28;20224;-96
2021/12/07 14:00:22;;;;;;;19.13;17.33;;;;;;;;;;5076858;28;20229;-96
2021/12/07 14:02:54;;;;;;;17.23;15.53;;;;;;;;;;5077984;28;20186;-94
2021/12/07 14:05:25;;;;;;;14.27;10.43;;;;;;;;;;5077423;28;20213;-96
2021/12/07 14:07:53;;;;;;;10.37;8.73;;;;;;;;;;5076251;28;20197;-96
2021/12/07 14:10:25;;;;;;;7.23;5.20;;;;;;;;;;5078089;28;20186;-96
2021/12/07 14:12:54;;;;;;;6.23;3.40;;;;;;;;;;5078765;28;20170;-96
2021/12/07 14:15:24;;;;;;;4.07;2.90;;;;;;;;;;5078736;28;20186;-96
2021/12/07 14:17:54;;;;;;;3.23;2.93;;;;;;;;;;5078867;28;20178;-96
2021/12/07 14:20:35;;;;;;;2.50;2.30;;;;;;;;;;5077809;28;20186;-96
2021/12/07 14:23:14;;;;;;;2.67;1.90;;;;;;;;;;5079576;28;20206;-95
2021/12/07 14:25:50;;;;;;;2.57;1.70;;;;;;;;;;5079502;28;20178;-96
2021/12/07 14:28:30;;;;;;;4.63;2.87;;;;;;;;;;5076563;28;20178;-96
2021/12/07 14:31:04;;;;;;;4.10;3.60;;;;;;;;;;5077002;28;20244;-96
2021/12/07 14:33:32;;;;;;;2.63;2.37;;;;;;;;;;5075891;28;20185;-96
2021/12/07 14:36:01;;;;;;;3.10;2.50;;;;;;;;;;5075934;28;20194;-96
2021/12/07 14:38:32;;;;;;;7.73;4.60;;;;;;;;;;5074621;28;20197;-96
2021/12/07 14:41:03;;;;;;;1.97;1.87;;;;;;;;;;5074375;28;20204;-96
2021/12/07 14:43:30;;;;;;;3.53;1.73;;;;;;;;;;5072296;28;20186;-96
2021/12/07 14:46:00;;;;;;;3.63;2.87;;;;;;;;;;5073996;28;20194;-96
2021/12/07 14:48:28;;;;;;;3.90;1.93;;;;;;;;;;5076061;28;20218;-96
2021/12/07 14:51:01;;;;;;;2.77;2.13;;;;;;;;;;5077782;28;20240;-96
2021/12/07 14:53:39;;;;;;;3.00;2.73;;;;;;;;;;5077844;28;20197;-95
2021/12/07 14:56:08;;;;;;;3.47;2.83;;;;;;;;;;5075265;28;20194;-96
2021/12/07 14:58:37;;;;;;;3.13;2.10;;;;;;;;;;5074981;28;20198;-96
2021/12/07 15:01:06;;;;;;;3.13;1.90;;;;;;;;;;5075737;28;20197;-96
2021/12/07 15:03:36;;;;;;;3.40;3.10;;;;;;;;;;5075131;28;20261;-96
2021/12/07 15:06:04;;;;;;;3.83;2.40;;;;;;;;;;5073798;28;20201;-96
2021/12/07 15:08:31;;;;;;;2.27;2.07;;;;;;;;;;5076686;28;20224;-96
2021/12/07 15:11:00;;;;;;;1.63;1.53;;;;;;;;;;5074418;28;20222;-96
2021/12/07 15:13:28;;;;;;;2.00;1.90;;;;;;;;;;5076562;28;20194;-96
2021/12/07 15:15:57;;;;;;;2.30;2.10;;;;;;;;;;5076963;28;20202;-96
2021/12/07 15:18:29;;;;;;;2.23;2.03;;;;;;;;;;5074031;28;20201;-96
2021/12/07 15:20:56;;;;;;;1.73;1.63;;;;;;;;;;5070000;28;20225;-96
2021/12/07 15:23:24;;;;;;;2.27;1.80;;;;;;;;;;5070842;28;20353;-96
2021/12/07 15:25:53;;;;;;;2.93;2.67;;;;;;;;;;5071287;28;20288;-96
2021/12/07 15:28:23;;;;;;;1.83;1.60;;;;;;;;;;5068025;28;20655;-96
2021/12/07 15:30:52;;;;;;;3.97;1.73;;;;;;;;;;5063343;28;20190;-96
2021/12/07 15:33:20;;;;;;;1.60;1.50;;;;;;;;;;5062382;28;20198;-96
2021/12/07 15:35:48;;;;;;;1.33;1.23;;;;;;;;;;5061182;28;20202;-96
2021/12/07 15:38:16;;;;;;;1.10;1.00;;;;;;;;;;5066053;28;20270;-96
2021/12/07 15:40:44;;;;;;;1.97;1.30;;;;;;;;;;5061405;28;20255;-96
2021/12/07 15:43:13;;;;;;;1.23;1.10;;;;;;;;;;5061203;28;20232;-96
2021/12/07 15:45:42;;;;;;;1.30;1.20;;;;;;;;;;5062821;28;20221;-94
2021/12/07 15:48:10;;;;;;;1.50;1.20;;;;;;;;;;5045545;28;20234;-96
2021/12/07 15:50:40;;;;;;;1.20;1.10;;;;;;;;;;5045518;28;20264;-96
2021/12/07 15:53:10;;;;;;;1.40;1.30;;;;;;;;;;5042950;28;20307;-94
2021/12/07 15:55:39;;;;;;;1.87;1.20;;;;;;;;;;5055051;28;20662;-96
2021/12/07 16:01:01;;;;;;;0.90;0.90;;;;;;;;;;5066920;28;20205;-96
2021/12/07 16:03:30;;;;;;;1.00;1.00;;;;;;;;;;5056523;28;20205;-96
2021/12/07 16:05:59;;;;;;;0.97;0.97;;;;;;;;;;5058491;28;20201;-96
2021/12/07 16:08:28;;;;;;;0.80;0.80;;;;;;;;;;5063579;28;20221;-96
2021/12/07 16:10:57;;;;;;;1.70;1.60;;;;;;;;;;5067345;28;20201;-96
2021/12/07 16:13:29;;;;;;;1.00;0.93;;;;;;;;;;5068436;28;20228;-96
2021/12/07 16:15:59;;;;;;;1.10;1.00;;;;;;;;;;5073222;28;20169;-96
2021/12/07 16:18:28;;;;;;;0.70;0.70;;;;;;;;;;5071524;28;20232;-96
2021/12/07 16:20:58;;;;;;;1.07;0.97;;;;;;;;;;5074409;28;20210;-96